sensor_id;sensor_type;location;lat;lon;timestamp;P1;durP1;ratioP1;P2;durP2;ratioP2
45940;SDS011;31858;46.008;8.978;2022-10-22T00:08:36;379.55;;;20.25;;
45940;SDS011;31858;46.008;8.978;2022-10-22T00:18:38;9.50;;;7.68;;
45940;SDS011;31858;46.008;8.978;2022-10-22T00:28:41;15.57;;;10.20;;
45940;SDS011;31858;46.008;8.978;2022-10-22T00:38:42;15.82;;;10.93;;
45940;SDS011;31858;46.008;8.978;2022-10-22T00:48:45;84.25;;;13.40;;
45940;SDS011;31858;46.008;8.978;2022-10-22T00:58:49;12.10;;;9.55;;
45940;SDS011;31858;46.008;8.978;2022-10-22T01:08:58;23.70;;;10.95;;
45940;SDS011;31858;46.008;8.978;2022-10-22T01:19:17;8.82;;;7.18;;
45940;SDS011;31858;46.008;8.978;2022-10-22T01:29:33;10.23;;;8.75;;
45940;SDS011;31858;46.008;8.978;2022-10-22T01:39:38;12.55;;;7.93;;
45940;SDS011;31858;46.008;8.978;2022-10-22T01:49:54;4.22;;;3.83;;
45940;SDS011;31858;46.008;8.978;2022-10-22T02:00:09;7.45;;;3.53;;
45940;SDS011;31858;46.008;8.978;2022-10-22T02:10:15;0.85;;;0.80;;
45940;SDS011;31858;46.008;8.978;2022-10-22T02:20:19;3.08;;;2.13;;
45940;SDS011;31858;46.008;8.978;2022-10-22T02:30:27;4.18;;;2.08;;
45940;SDS011;31858;46.008;8.978;2022-10-22T02:40:29;5.15;;;4.65;;
45940;SDS011;31858;46.008;8.978;2022-10-22T02:50:33;6.32;;;5.72;;
45940;SDS011;31858;46.008;8.978;2022-10-22T03:00:37;10.00;;;8.00;;
45940;SDS011;31858;46.008;8.978;2022-10-22T03:10:39;10.43;;;8.80;;
45940;SDS011;31858;46.008;8.978;2022-10-22T03:20:41;9.48;;;8.05;;
45940;SDS011;31858;46.008;8.978;2022-10-22T03:30:44;10.27;;;8.77;;
45940;SDS011;31858;46.008;8.978;2022-10-22T03:40:46;8.20;;;6.90;;
45940;SDS011;31858;46.008;8.978;2022-10-22T03:50:49;9.07;;;6.90;;
45940;SDS011;31858;46.008;8.978;2022-10-22T04:00:51;12.30;;;8.30;;
45940;SDS011;31858;46.008;8.978;2022-10-22T04:10:54;10.13;;;7.60;;
45940;SDS011;31858;46.008;8.978;2022-10-22T04:20:55;7.45;;;6.45;;
45940;SDS011;31858;46.008;8.978;2022-10-22T04:30:58;7.10;;;6.00;;
45940;SDS011;31858;46.008;8.978;2022-10-22T04:41:07;4.95;;;4.35;;
45940;SDS011;31858;46.008;8.978;2022-10-22T04:51:12;8.77;;;4.43;;
45940;SDS011;31858;46.008;8.978;2022-10-22T05:01:17;6.10;;;4.10;;
45940;SDS011;31858;46.008;8.978;2022-10-22T05:11:23;5.47;;;3.10;;
45940;SDS011;31858;46.008;8.978;2022-10-22T05:21:28;2.85;;;2.65;;
45940;SDS011;31858;46.008;8.978;2022-10-22T05:31:31;3.45;;;2.60;;
45940;SDS011;31858;46.008;8.978;2022-10-22T05:41:33;4.63;;;1.98;;
45940;SDS011;31858;46.008;8.978;2022-10-22T05:51:37;129.52;;;5.40;;
45940;SDS011;31858;46.008;8.978;2022-10-22T06:01:39;2.92;;;2.72;;
45940;SDS011;31858;46.008;8.978;2022-10-22T06:11:42;2.30;;;2.10;;
45940;SDS011;31858;46.008;8.978;2022-10-22T06:21:44;13.93;;;2.63;;
45940;SDS011;31858;46.008;8.978;2022-10-22T06:31:47;2.30;;;2.10;;
45940;SDS011;31858;46.008;8.978;2022-10-22T06:41:49;2.47;;;2.00;;
45940;SDS011;31858;46.008;8.978;2022-10-22T06:51:52;3.63;;;1.70;;
45940;SDS011;31858;46.008;8.978;2022-10-22T07:01:54;2.08;;;1.98;;
45940;SDS011;31858;46.008;8.978;2022-10-22T07:11:57;2.50;;;2.30;;
45940;SDS011;31858;46.008;8.978;2022-10-22T07:21:59;1.20;;;1.10;;
45940;SDS011;31858;46.008;8.978;2022-10-22T07:32:02;0.70;;;0.70;;
45940;SDS011;31858;46.008;8.978;2022-10-22T07:42:04;7.13;;;0.85;;
45940;SDS011;31858;46.008;8.978;2022-10-22T07:52:07;3.58;;;2.72;;
45940;SDS011;31858;46.008;8.978;2022-10-22T08:02:09;0.65;;;0.65;;
45940;SDS011;31858;46.008;8.978;2022-10-22T08:12:12;14.02;;;1.80;;
45940;SDS011;31858;46.008;8.978;2022-10-22T08:22:14;1.15;;;1.05;;
45940;SDS011;31858;46.008;8.978;2022-10-22T08:32:17;0.68;;;0.50;;
45940;SDS011;31858;46.008;8.978;2022-10-22T08:52:44;0.50;;;0.50;;
45940;SDS011;31858;46.008;8.978;2022-10-22T09:02:56;2.95;;;0.70;;
45940;SDS011;31858;46.008;8.978;2022-10-22T09:13:08;0.98;;;0.60;;
45940;SDS011;31858;46.008;8.978;2022-10-22T09:23:21;0.40;;;0.40;;
45940;SDS011;31858;46.008;8.978;2022-10-22T09:33:32;1.25;;;1.15;;
45940;SDS011;31858;46.008;8.978;2022-10-22T09:43:34;2.05;;;1.88;;
45940;SDS011;31858;46.008;8.978;2022-10-22T09:53:38;4.05;;;3.75;;
45940;SDS011;31858;46.008;8.978;2022-10-22T10:03:42;2.67;;;2.40;;
45940;SDS011;31858;46.008;8.978;2022-10-22T10:13:48;3.13;;;2.83;;
45940;SDS011;31858;46.008;8.978;2022-10-22T10:23:56;4.40;;;4.03;;
45940;SDS011;31858;46.008;8.978;2022-10-22T10:34:06;4.20;;;3.35;;
45940;SDS011;31858;46.008;8.978;2022-10-22T10:44:35;3.70;;;3.40;;
45940;SDS011;31858;46.008;8.978;2022-10-22T10:54:48;4.20;;;3.80;;
45940;SDS011;31858;46.008;8.978;2022-10-22T11:05:02;3.70;;;3.05;;
45940;SDS011;31858;46.008;8.978;2022-10-22T11:15:15;3.42;;;3.13;;
45940;SDS011;31858;46.008;8.978;2022-10-22T11:25:26;3.67;;;3.38;;
45940;SDS011;31858;46.008;8.978;2022-10-22T11:35:33;2.97;;;2.70;;
45940;SDS011;31858;46.008;8.978;2022-10-22T11:45:38;3.72;;;3.20;;
45940;SDS011;31858;46.008;8.978;2022-10-22T11:55:43;4.05;;;2.72;;
45940;SDS011;31858;46.008;8.978;2022-10-22T12:06:00;3.10;;;2.80;;
45940;SDS011;31858;46.008;8.978;2022-10-22T12:16:08;2.92;;;2.35;;
45940;SDS011;31858;46.008;8.978;2022-10-22T12:26:21;3.67;;;2.63;;
45940;SDS011;31858;46.008;8.978;2022-10-22T12:36:26;3.38;;;2.38;;
45940;SDS011;31858;46.008;8.978;2022-10-22T12:46:29;2.40;;;2.20;;
45940;SDS011;31858;46.008;8.978;2022-10-22T12:56:34;2.33;;;1.63;;
45940;SDS011;31858;46.008;8.978;2022-10-22T13:06:42;2.85;;;1.65;;
45940;SDS011;31858;46.008;8.978;2022-10-22T13:27:13;2.43;;;1.20;;
45940;SDS011;31858;46.008;8.978;2022-10-22T13:37:16;2.60;;;0.73;;
45940;SDS011;31858;46.008;8.978;2022-10-22T13:47:22;1.42;;;0.95;;
45940;SDS011;31858;46.008;8.978;2022-10-22T13:57:28;1.23;;;1.13;;
45940;SDS011;31858;46.008;8.978;2022-10-22T14:07:30;0.90;;;0.47;;
45940;SDS011;31858;46.008;8.978;2022-10-22T14:17:33;3.28;;;1.23;;
45940;SDS011;31858;46.008;8.978;2022-10-22T14:27:34;0.63;;;0.55;;
45940;SDS011;31858;46.008;8.978;2022-10-22T14:37:38;0.75;;;0.68;;
45940;SDS011;31858;46.008;8.978;2022-10-22T14:47:40;2.17;;;0.85;;
45940;SDS011;31858;46.008;8.978;2022-10-22T14:57:43;0.52;;;0.40;;
45940;SDS011;31858;46.008;8.978;2022-10-22T15:07:45;0.70;;;0.63;;
45940;SDS011;31858;46.008;8.978;2022-10-22T15:17:48;0.70;;;0.70;;
45940;SDS011;31858;46.008;8.978;2022-10-22T15:27:50;2.78;;;1.40;;
45940;SDS011;31858;46.008;8.978;2022-10-22T15:37:53;1.45;;;1.00;;
45940;SDS011;31858;46.008;8.978;2022-10-22T15:47:54;1.27;;;1.00;;
45940;SDS011;31858;46.008;8.978;2022-10-22T15:57:57;1.67;;;1.00;;
45940;SDS011;31858;46.008;8.978;2022-10-22T16:07:59;0.85;;;0.70;;
45940;SDS011;31858;46.008;8.978;2022-10-22T16:18:02;2.17;;;0.80;;
45940;SDS011;31858;46.008;8.978;2022-10-22T16:28:03;2.92;;;0.73;;
45940;SDS011;31858;46.008;8.978;2022-10-22T16:38:06;0.60;;;0.60;;
45940;SDS011;31858;46.008;8.978;2022-10-22T16:48:09;1.65;;;0.50;;
45940;SDS011;31858;46.008;8.978;2022-10-22T16:58:12;0.47;;;0.47;;
45940;SDS011;31858;46.008;8.978;2022-10-22T17:08:13;0.40;;;0.40;;
45940;SDS011;31858;46.008;8.978;2022-10-22T17:18:16;4.43;;;0.50;;
45940;SDS011;31858;46.008;8.978;2022-10-22T17:28:18;3.22;;;0.60;;
45940;SDS011;31858;46.008;8.978;2022-10-22T17:38:21;1.23;;;0.50;;
45940;SDS011;31858;46.008;8.978;2022-10-22T17:48:22;4.78;;;0.50;;
45940;SDS011;31858;46.008;8.978;2022-10-22T17:58:25;2.13;;;0.68;;
45940;SDS011;31858;46.008;8.978;2022-10-22T18:08:28;1.48;;;0.60;;
45940;SDS011;31858;46.008;8.978;2022-10-22T18:18:31;4.68;;;0.90;;
45940;SDS011;31858;46.008;8.978;2022-10-22T18:28:34;2.55;;;0.63;;
45940;SDS011;31858;46.008;8.978;2022-10-22T18:38:37;1.02;;;0.80;;
45940;SDS011;31858;46.008;8.978;2022-10-22T18:48:39;4.38;;;1.10;;
45940;SDS011;31858;46.008;8.978;2022-10-22T18:58:43;1.17;;;0.75;;
45940;SDS011;31858;46.008;8.978;2022-10-22T19:08:46;1.65;;;0.73;;
45940;SDS011;31858;46.008;8.978;2022-10-22T19:18:50;9.43;;;1.95;;
45940;SDS011;31858;46.008;8.978;2022-10-22T19:28:52;1.38;;;0.77;;
45940;SDS011;31858;46.008;8.978;2022-10-22T19:38:55;0.77;;;0.57;;
45940;SDS011;31858;46.008;8.978;2022-10-22T19:48:57;1.85;;;0.85;;
45940;SDS011;31858;46.008;8.978;2022-10-22T19:59:01;5.05;;;1.05;;
45940;SDS011;31858;46.008;8.978;2022-10-22T20:09:03;2.20;;;0.73;;
45940;SDS011;31858;46.008;8.978;2022-10-22T20:19:06;0.57;;;0.57;;
45940;SDS011;31858;46.008;8.978;2022-10-22T20:29:09;1.63;;;1.38;;
45940;SDS011;31858;46.008;8.978;2022-10-22T20:39:15;2.85;;;1.00;;
45940;SDS011;31858;46.008;8.978;2022-10-22T20:49:17;1.13;;;0.70;;
45940;SDS011;31858;46.008;8.978;2022-10-22T20:59:22;6.38;;;1.05;;
45940;SDS011;31858;46.008;8.978;2022-10-22T21:09:24;0.70;;;0.70;;
45940;SDS011;31858;46.008;8.978;2022-10-22T21:19:27;3.47;;;1.10;;
45940;SDS011;31858;46.008;8.978;2022-10-22T21:29:28;2.58;;;1.50;;
45940;SDS011;31858;46.008;8.978;2022-10-22T21:39:31;3.03;;;1.65;;
45940;SDS011;31858;46.008;8.978;2022-10-22T21:49:34;2.53;;;1.60;;
45940;SDS011;31858;46.008;8.978;2022-10-22T21:59:37;4.10;;;2.10;;
45940;SDS011;31858;46.008;8.978;2022-10-22T22:09:39;2.45;;;1.40;;
45940;SDS011;31858;46.008;8.978;2022-10-22T22:19:41;3.90;;;1.40;;
45940;SDS011;31858;46.008;8.978;2022-10-22T22:29:43;1.63;;;1.17;;
45940;SDS011;31858;46.008;8.978;2022-10-22T22:39:46;3.63;;;2.03;;
45940;SDS011;31858;46.008;8.978;2022-10-22T22:49:47;5.00;;;1.60;;
45940;SDS011;31858;46.008;8.978;2022-10-22T22:59:50;5.35;;;1.20;;
45940;SDS011;31858;46.008;8.978;2022-10-22T23:09:52;5.30;;;1.50;;
45940;SDS011;31858;46.008;8.978;2022-10-22T23:19:55;1.83;;;1.45;;
45940;SDS011;31858;46.008;8.978;2022-10-22T23:29:56;1.75;;;1.50;;
45940;SDS011;31858;46.008;8.978;2022-10-22T23:39:59;2.70;;;1.20;;
45940;SDS011;31858;46.008;8.978;2022-10-22T23:50:01;2.70;;;1.90;;
